createdAt,value
2023-02-09T00:01:24.683Z,57.17
2023-02-09T00:03:52.182Z,54.50
2023-02-09T00:06:21.355Z,56.10
2023-02-09T00:08:47.909Z,60.17
2023-02-09T00:11:42.330Z,57.00
2023-02-09T00:14:10.508Z,58.77
2023-02-09T00:16:36.983Z,60.80
2023-02-09T00:19:03.223Z,62.27
2023-02-09T00:21:29.721Z,54.67
2023-02-09T00:23:57.584Z,62.90
2023-02-09T00:26:24.330Z,53.60
2023-02-09T00:28:50.483Z,55.93
2023-02-09T00:31:19.407Z,61.53
2023-02-09T00:33:45.770Z,55.83
2023-02-09T00:36:13.726Z,55.33
2023-02-09T00:38:43.768Z,60.43
2023-02-09T00:41:11.792Z,58.93
2023-02-09T00:43:38.174Z,61.10
2023-02-09T00:46:05.191Z,63.87
2023-02-09T00:48:31.601Z,57.43
2023-02-09T00:50:58.695Z,55.77
2023-02-09T00:53:25.288Z,60.60
2023-02-09T00:55:52.301Z,62.87
2023-02-09T00:58:19.429Z,55.23
2023-02-09T01:00:46.237Z,58.07
2023-02-09T01:03:12.474Z,62.60
2023-02-09T01:05:40.241Z,70.33
2023-02-09T01:08:06.446Z,61.00
2023-02-09T01:10:32.999Z,57.17
2023-02-09T01:12:59.127Z,60.27
2023-02-09T01:15:27.856Z,58.23
2023-02-09T01:17:53.974Z,58.13
2023-02-09T01:20:20.524Z,56.83
2023-02-09T01:22:46.654Z,58.90
2023-02-09T01:25:13.061Z,57.30
2023-02-09T01:27:39.714Z,61.10
2023-02-09T01:30:06.635Z,59.37
2023-02-09T01:32:35.209Z,61.13
2023-02-09T01:35:01.684Z,70.77
2023-02-09T01:37:27.822Z,64.40
2023-02-09T01:39:54.628Z,62.00
2023-02-09T01:42:21.115Z,64.97
2023-02-09T01:45:32.734Z,66.03
2023-02-09T01:48:03.036Z,68.00
2023-02-09T01:50:36.516Z,61.60
2023-02-09T01:53:03.377Z,62.60
2023-02-09T01:55:34.058Z,62.63
2023-02-09T01:58:06.417Z,62.50
2023-02-09T02:00:33.273Z,59.87
2023-02-09T02:03:04.444Z,64.97
2023-02-09T02:05:36.217Z,59.37
2023-02-09T02:08:13.857Z,56.70
2023-02-09T02:10:40.567Z,57.57
2023-02-09T02:13:06.781Z,61.73
2023-02-09T02:16:12.154Z,60.13
2023-02-09T02:19:08.974Z,61.20
2023-02-09T02:21:52.225Z,61.20
2023-02-09T02:24:39.913Z,62.87
2023-02-09T02:27:09.947Z,59.13
2023-02-09T02:29:36.049Z,57.33
2023-02-09T02:32:02.488Z,58.33
2023-02-09T02:34:53.635Z,59.00
2023-02-09T02:37:31.371Z,60.07
2023-02-09T02:40:11.947Z,58.30
2023-02-09T02:43:15.842Z,62.77
2023-02-09T02:45:44.647Z,58.33
2023-02-09T02:48:17.863Z,57.50
2023-02-09T02:50:53.752Z,62.90
2023-02-09T02:53:25.499Z,61.43
2023-02-09T02:55:54.202Z,64.20
2023-02-09T02:58:23.062Z,69.97
2023-02-09T03:00:51.463Z,68.70
2023-02-09T03:03:22.224Z,66.30
2023-02-09T03:05:49.632Z,63.60
2023-02-09T03:08:16.123Z,59.13
2023-02-09T03:10:43.116Z,56.47
2023-02-09T03:13:36.640Z,61.50
2023-02-09T03:16:17.543Z,66.50
2023-02-09T03:19:05.920Z,61.90
2023-02-09T03:21:41.435Z,65.93
2023-02-09T03:24:29.963Z,61.07
2023-02-09T03:27:17.799Z,62.37
2023-02-09T03:29:48.924Z,68.07
2023-02-09T03:32:17.141Z,62.13
2023-02-09T03:34:44.854Z,60.60
2023-02-09T03:37:11.116Z,69.93
2023-02-09T03:39:37.743Z,53.93
2023-02-09T03:42:04.128Z,67.33
2023-02-09T03:44:30.855Z,58.13
2023-02-09T03:46:59.959Z,60.50
2023-02-09T03:49:30.916Z,59.63
2023-02-09T03:51:59.911Z,64.07
2023-02-09T03:54:27.817Z,63.83
2023-02-09T03:56:53.937Z,60.40
2023-02-09T03:59:24.697Z,61.37
2023-02-09T04:01:52.969Z,66.67
2023-02-09T04:04:20.308Z,67.37
2023-02-09T04:06:46.884Z,73.43
2023-02-09T04:09:13.625Z,63.07
2023-02-09T04:11:39.750Z,67.37
2023-02-09T04:14:08.350Z,60.30
2023-02-09T04:16:35.486Z,61.90
2023-02-09T04:19:02.911Z,64.20
2023-02-09T04:21:29.117Z,68.83
2023-02-09T04:23:55.651Z,56.43
2023-02-09T04:26:21.894Z,65.60
2023-02-09T04:28:48.790Z,67.60
2023-02-09T04:31:15.445Z,57.13
2023-02-09T04:33:42.045Z,63.07
2023-02-09T04:36:08.747Z,54.30
2023-02-09T04:38:35.607Z,64.63
2023-02-09T04:41:02.942Z,63.27
2023-02-09T04:43:30.120Z,69.23
2023-02-09T04:45:56.963Z,64.80
2023-02-09T04:48:24.927Z,65.63
2023-02-09T04:50:51.261Z,65.73
2023-02-09T04:53:18.864Z,65.77
2023-02-09T04:55:46.773Z,68.53
2023-02-09T04:58:34.386Z,66.33
2023-02-09T05:01:01.564Z,62.90
2023-02-09T05:03:28.708Z,68.90
2023-02-09T05:06:01.666Z,72.83
2023-02-09T05:08:28.594Z,68.87
2023-02-09T05:10:55.291Z,65.97
2023-02-09T05:13:23.810Z,65.40
2023-02-09T05:15:50.144Z,69.33
2023-02-09T05:18:16.757Z,71.47
2023-02-09T05:20:43.747Z,70.87
2023-02-09T05:23:10.840Z,59.07
2023-02-09T05:25:37.377Z,68.83
2023-02-09T05:28:04.094Z,63.57
2023-02-09T05:30:31.924Z,64.50
2023-02-09T05:32:58.427Z,61.67
2023-02-09T05:35:24.915Z,63.90
2023-02-09T05:37:51.364Z,63.50
2023-02-09T05:40:17.652Z,64.13
2023-02-09T05:42:44.166Z,58.80
2023-02-09T05:45:10.423Z,62.53
2023-02-09T05:47:36.992Z,60.90
2023-02-09T05:50:03.419Z,58.83
2023-02-09T05:52:30.038Z,70.03
2023-02-09T05:54:56.258Z,67.63
2023-02-09T05:57:22.933Z,61.63
2023-02-09T05:59:49.159Z,61.30
2023-02-09T06:02:15.726Z,67.77
2023-02-09T06:04:42.181Z,67.80
2023-02-09T06:07:10.934Z,69.03
2023-02-09T06:09:37.969Z,69.67
2023-02-09T06:12:04.716Z,71.67
2023-02-09T06:14:30.923Z,78.17
2023-02-09T06:16:57.810Z,72.50
2023-02-09T06:19:24.346Z,69.90
2023-02-09T06:21:51.662Z,68.73
2023-02-09T06:24:18.508Z,64.97
2023-02-09T06:26:45.953Z,65.53
2023-02-09T06:29:12.397Z,66.20
2023-02-09T06:31:41.286Z,62.27
2023-02-09T06:34:08.307Z,64.03
2023-02-09T06:36:34.990Z,59.17
2023-02-09T06:39:01.284Z,64.37
2023-02-09T06:41:27.900Z,68.60
2023-02-09T06:43:54.687Z,65.63
2023-02-09T06:46:21.250Z,73.50
2023-02-09T06:48:47.927Z,86.07
2023-02-09T06:51:16.420Z,68.00
2023-02-09T06:53:43.744Z,66.97
2023-02-09T06:56:11.958Z,63.40
2023-02-09T06:58:39.920Z,65.20
2023-02-09T07:01:09.383Z,80.50
2023-02-09T07:03:36.810Z,118.63
2023-02-09T07:06:05.750Z,247.77
2023-02-09T07:08:32.647Z,212.77
2023-02-09T07:11:03.702Z,142.63
2023-02-09T07:13:31.268Z,98.53
2023-02-09T07:15:59.481Z,78.13
2023-02-09T07:18:27.500Z,72.03
2023-02-09T07:20:55.602Z,54.13
2023-02-09T07:23:23.496Z,70.87
2023-02-09T07:25:50.181Z,63.33
2023-02-09T07:28:19.932Z,63.40
2023-02-09T07:30:48.537Z,64.43
2023-02-09T07:33:15.957Z,66.47
2023-02-09T07:35:42.353Z,66.83
2023-02-09T07:38:09.648Z,58.17
2023-02-09T07:40:37.616Z,57.13
2023-02-09T07:43:05.877Z,62.63
2023-02-09T07:45:32.984Z,60.27
2023-02-09T07:48:04.158Z,58.73
2023-02-09T07:50:34.995Z,56.10
2023-02-09T07:53:02.797Z,54.50
2023-02-09T07:55:29.685Z,55.83
2023-02-09T07:57:58.181Z,61.13
2023-02-09T08:00:25.601Z,60.93
2023-02-09T08:02:52.823Z,57.97
2023-02-09T08:06:02.948Z,56.30
2023-02-09T08:08:30.082Z,62.00
2023-02-09T08:11:00.199Z,64.63
2023-02-09T08:13:30.042Z,58.80
2023-02-09T08:16:04.276Z,60.67
2023-02-09T08:18:41.296Z,62.37
2023-02-09T08:21:10.708Z,58.07
2023-02-09T08:23:40.635Z,54.87
2023-02-09T08:26:09.739Z,61.43
2023-02-09T08:28:44.145Z,53.10
2023-02-09T08:31:17.663Z,65.90
2023-02-09T08:33:46.924Z,55.40
2023-02-09T08:36:16.311Z,63.30
2023-02-09T08:38:43.974Z,48.07
2023-02-09T08:41:13.738Z,50.47
2023-02-09T08:43:40.979Z,42.80
2023-02-09T08:46:10.731Z,39.43
2023-02-09T08:48:42.463Z,48.07
2023-02-09T08:51:10.816Z,41.57
2023-02-09T08:53:37.980Z,41.93
2023-02-09T08:56:05.339Z,37.23
2023-02-09T08:58:35.950Z,37.03
2023-02-09T09:01:04.826Z,33.60
2023-02-09T09:03:32.224Z,39.70
2023-02-09T09:06:01.585Z,39.00
2023-02-09T09:08:29.110Z,36.63
2023-02-09T09:10:55.908Z,34.03
2023-02-09T09:13:26.287Z,36.07
2023-02-09T09:15:57.438Z,43.70
2023-02-09T09:18:25.434Z,38.17
2023-02-09T09:20:52.819Z,36.07
2023-02-09T09:23:20.600Z,32.00
2023-02-09T09:25:47.623Z,33.67
2023-02-09T09:28:15.097Z,34.47
2023-02-09T09:30:41.820Z,32.03
2023-02-09T09:33:08.466Z,34.67
2023-02-09T09:35:34.914Z,34.50
2023-02-09T09:38:01.582Z,29.90
2023-02-09T09:40:31.664Z,34.03
2023-02-09T09:43:01.737Z,32.87
2023-02-09T09:45:32.718Z,29.53
2023-02-09T09:47:59.515Z,33.33
2023-02-09T09:50:37.664Z,33.30
2023-02-09T09:53:15.492Z,34.37
2023-02-09T09:55:44.722Z,33.50
2023-02-09T09:58:17.306Z,29.30
2023-02-09T10:00:44.682Z,31.30
2023-02-09T10:03:17.605Z,28.93
2023-02-09T10:05:47.977Z,28.23
2023-02-09T10:08:21.950Z,31.23
2023-02-09T10:11:05.232Z,28.97
2023-02-09T10:13:36.300Z,35.23
2023-02-09T10:16:03.615Z,28.90
2023-02-09T10:18:32.483Z,29.73
2023-02-09T10:21:08.243Z,29.73
2023-02-09T10:23:50.063Z,26.53
2023-02-09T10:26:24.824Z,29.30
2023-02-09T10:28:57.281Z,28.03
2023-02-09T10:31:37.706Z,28.60
2023-02-09T10:34:16.337Z,30.07
2023-02-09T10:36:50.418Z,30.67
2023-02-09T10:39:21.446Z,25.60
2023-02-09T10:41:51.127Z,28.50
2023-02-09T10:44:25.573Z,30.03
2023-02-09T10:47:10.973Z,26.93
2023-02-09T10:49:39.215Z,29.67
2023-02-09T10:52:11.439Z,22.23
2023-02-09T10:54:55.621Z,21.73
2023-02-09T10:57:33.043Z,23.57
2023-02-09T11:00:21.156Z,21.33
2023-02-09T11:02:47.282Z,28.00
2023-02-09T11:05:19.956Z,24.13
2023-02-09T11:08:04.115Z,24.93
2023-02-09T11:10:37.074Z,22.57
2023-02-09T11:13:16.666Z,22.07
2023-02-09T11:15:58.987Z,19.83
2023-02-09T11:18:31.385Z,22.43
2023-02-09T11:21:12.752Z,22.70
2023-02-09T11:23:54.874Z,24.90
2023-02-09T11:26:37.606Z,26.63
2023-02-09T11:29:21.770Z,23.67
2023-02-09T11:32:22.294Z,22.47
2023-02-09T11:35:00.857Z,24.67
2023-02-09T11:37:33.611Z,27.10
2023-02-09T11:40:16.717Z,29.20
2023-02-09T11:42:57.169Z,25.70
2023-02-09T11:45:34.470Z,23.73
2023-02-09T11:48:12.058Z,26.23
2023-02-09T11:50:41.778Z,24.23
2023-02-09T11:53:43.839Z,27.23
2023-02-09T11:56:16.563Z,26.00
2023-02-09T11:58:52.575Z,30.87
2023-02-09T12:01:37.637Z,29.83
2023-02-09T12:04:26.283Z,25.47
2023-02-09T12:07:17.329Z,25.17
2023-02-09T12:09:56.443Z,25.17
2023-02-09T12:12:22.829Z,26.37
2023-02-09T12:15:01.486Z,25.10
2023-02-09T12:17:46.892Z,25.43
2023-02-09T12:20:27.344Z,26.27
2023-02-09T12:23:15.274Z,25.67
2023-02-09T12:26:00.551Z,25.97
2023-02-09T12:28:27.089Z,26.03
2023-02-09T12:30:53.885Z,24.67
2023-02-09T12:33:23.279Z,28.90
2023-02-09T12:36:08.902Z,24.70
2023-02-09T12:39:03.878Z,26.03
2023-02-09T12:41:51.263Z,24.20
2023-02-09T12:44:18.853Z,27.50
2023-02-09T12:46:55.286Z,30.30
2023-02-09T12:49:28.147Z,26.93
2023-02-09T12:52:00.810Z,25.90
2023-02-09T12:54:30.754Z,31.80
2023-02-09T12:57:16.080Z,23.73
2023-02-09T12:59:49.064Z,28.70
2023-02-09T13:02:37.455Z,26.80
2023-02-09T13:05:16.234Z,26.70
2023-02-09T13:08:01.259Z,27.80
2023-02-09T13:10:31.568Z,29.87
2023-02-09T13:13:13.964Z,26.10
2023-02-09T13:16:11.166Z,28.77
2023-02-09T13:19:11.998Z,29.83
2023-02-09T13:21:47.970Z,30.10
2023-02-09T13:24:18.006Z,28.47
2023-02-09T13:26:53.375Z,31.43
2023-02-09T13:29:31.426Z,37.87
2023-02-09T13:32:20.389Z,28.33
2023-02-09T13:34:51.560Z,45.87
2023-02-09T13:37:45.984Z,31.40
2023-02-09T13:40:21.643Z,26.47
2023-02-09T13:42:58.035Z,30.57
2023-02-09T13:45:28.392Z,28.20
2023-02-09T13:47:56.729Z,26.73
2023-02-09T13:50:27.570Z,24.03
2023-02-09T13:52:53.829Z,23.27
2023-02-09T13:55:26.048Z,20.13
2023-02-09T13:58:03.734Z,21.00
2023-02-09T14:00:39.024Z,20.00
2023-02-09T14:03:13.565Z,19.90
2023-02-09T14:05:53.598Z,19.37
2023-02-09T14:08:21.638Z,23.07
2023-02-09T14:11:36.447Z,18.90
2023-02-09T14:14:27.829Z,16.87
2023-02-09T14:17:22.826Z,23.53
2023-02-09T14:19:51.531Z,19.43
2023-02-09T14:22:36.462Z,15.93
2023-02-09T14:25:15.017Z,23.50
2023-02-09T14:27:46.860Z,19.60
2023-02-09T14:30:24.675Z,24.57
2023-02-09T14:32:59.097Z,31.10
2023-02-09T14:35:28.590Z,19.73
2023-02-09T14:37:58.830Z,25.93
2023-02-09T14:40:29.323Z,24.97
2023-02-09T14:42:59.439Z,35.23
2023-02-09T14:45:38.646Z,45.30
2023-02-09T14:48:22.323Z,34.63
2023-02-09T14:50:53.619Z,21.53
2023-02-09T14:53:22.916Z,20.03
2023-02-09T14:55:49.784Z,24.87
2023-02-09T14:58:25.552Z,18.00
2023-02-09T15:00:54.688Z,17.40
2023-02-09T15:03:22.464Z,26.23
2023-02-09T15:05:51.560Z,19.27
2023-02-09T15:08:23.154Z,27.67
2023-02-09T15:10:52.988Z,25.07
2023-02-09T15:13:20.883Z,31.33
2023-02-09T15:15:47.323Z,26.47
2023-02-09T15:18:25.808Z,29.53
2023-02-09T15:20:52.367Z,24.83
2023-02-09T15:23:19.387Z,32.73
2023-02-09T15:25:46.073Z,39.20
2023-02-09T15:28:16.535Z,43.83
2023-02-09T15:30:43.199Z,66.80
2023-02-09T15:33:11.723Z,85.57
2023-02-09T15:35:39.980Z,88.40
2023-02-09T15:38:11.216Z,94.47
2023-02-09T15:41:00.538Z,86.30
2023-02-09T15:43:47.136Z,72.80
2023-02-09T15:46:32.873Z,52.90
2023-02-09T15:49:00.186Z,41.07
2023-02-09T15:51:30.504Z,34.90
2023-02-09T15:54:00.517Z,47.43
2023-02-09T15:56:27.261Z,49.67
2023-02-09T15:58:56.437Z,44.90
2023-02-09T16:01:22.717Z,43.10
2023-02-09T16:03:49.488Z,35.87
2023-02-09T16:06:18.787Z,42.63
2023-02-09T16:08:47.786Z,38.53
2023-02-09T16:11:20.389Z,41.63
2023-02-09T16:13:48.011Z,58.60
2023-02-09T16:16:17.817Z,272.40
2023-02-09T16:18:46.266Z,123.63
2023-02-09T16:21:33.260Z,111.93
2023-02-09T16:24:02.878Z,95.17
2023-02-09T16:26:30.420Z,337.33
2023-02-09T16:28:57.838Z,324.77
2023-02-09T16:31:24.800Z,179.97
2023-02-09T16:33:51.782Z,135.10
2023-02-09T16:36:27.983Z,62.47
2023-02-09T16:38:54.744Z,51.90
2023-02-09T16:41:39.735Z,51.67
2023-02-09T16:44:23.123Z,58.97
2023-02-09T16:46:54.697Z,41.80
2023-02-09T16:49:30.553Z,52.33
2023-02-09T16:52:01.263Z,126.17
2023-02-09T16:54:30.629Z,137.50
2023-02-09T16:56:57.429Z,146.03
2023-02-09T16:59:24.605Z,119.07
2023-02-09T17:01:53.672Z,123.30
2023-02-09T17:04:20.323Z,96.83
2023-02-09T17:06:50.292Z,101.30
2023-02-09T17:09:17.008Z,126.93
2023-02-09T17:11:43.810Z,117.40
2023-02-09T17:14:11.722Z,84.03
2023-02-09T17:16:42.496Z,55.27
2023-02-09T17:19:14.371Z,51.50
2023-02-09T17:21:41.573Z,50.80
2023-02-09T17:24:16.419Z,67.47
2023-02-09T17:26:43.723Z,58.83
2023-02-09T17:29:11.409Z,46.10
2023-02-09T17:31:52.298Z,44.07
2023-02-09T17:34:21.280Z,50.00
2023-02-09T17:36:47.654Z,47.57
2023-02-09T17:39:16.114Z,47.03
2023-02-09T17:41:44.786Z,46.40
2023-02-09T17:44:24.093Z,61.60
2023-02-09T17:46:55.266Z,61.07
2023-02-09T17:49:21.918Z,72.90
2023-02-09T17:51:48.923Z,73.13
2023-02-09T17:54:18.239Z,73.40
2023-02-09T17:56:45.450Z,79.47
2023-02-09T17:59:14.137Z,70.17
2023-02-09T18:01:45.190Z,98.70
2023-02-09T18:04:18.873Z,161.37
2023-02-09T18:06:45.760Z,137.97
2023-02-09T18:09:12.921Z,122.27
2023-02-09T18:11:39.154Z,126.27
2023-02-09T18:14:06.101Z,102.43
2023-02-09T18:16:32.709Z,106.97
2023-02-09T18:18:59.345Z,128.20
2023-02-09T18:21:25.731Z,133.87
2023-02-09T18:23:52.595Z,137.37
2023-02-09T18:26:19.102Z,135.97
2023-02-09T18:28:46.152Z,116.10
2023-02-09T18:31:17.016Z,109.67
2023-02-09T18:33:44.969Z,102.93
2023-02-09T18:36:14.576Z,95.10
2023-02-09T18:38:41.877Z,92.20
2023-02-09T18:41:12.424Z,97.63
2023-02-09T18:43:39.406Z,89.80
2023-02-09T18:46:05.987Z,79.23
2023-02-09T18:48:32.959Z,79.27
2023-02-09T18:50:59.400Z,100.10
2023-02-09T18:53:26.313Z,82.17
2023-02-09T18:55:53.403Z,75.97
2023-02-09T18:58:20.541Z,72.70
2023-02-09T19:00:47.101Z,76.47
2023-02-09T19:03:17.325Z,65.27
2023-02-09T19:05:44.563Z,60.17
2023-02-09T19:08:12.799Z,53.90
2023-02-09T19:10:42.344Z,44.47
2023-02-09T19:13:11.045Z,39.30
2023-02-09T19:15:38.476Z,36.17
2023-02-09T19:18:05.662Z,36.30
2023-02-09T19:20:33.963Z,33.83
2023-02-09T19:23:03.054Z,40.33
2023-02-09T19:25:30.318Z,38.23
2023-02-09T19:27:57.832Z,37.63
2023-02-09T19:30:25.813Z,36.00
2023-02-09T19:32:54.991Z,30.90
2023-02-09T19:35:22.372Z,30.40
2023-02-09T19:37:53.456Z,33.30
2023-02-09T19:40:27.335Z,28.97
2023-02-09T19:42:56.092Z,32.70
2023-02-09T19:45:23.152Z,27.90
2023-02-09T19:47:50.793Z,26.20
2023-02-09T19:50:17.805Z,28.03
2023-02-09T19:52:46.823Z,28.20
2023-02-09T19:55:14.290Z,30.03
2023-02-09T19:57:41.934Z,25.60
2023-02-09T20:00:10.645Z,24.30
2023-02-09T20:02:38.783Z,23.07
2023-02-09T20:05:06.326Z,27.17
2023-02-09T20:07:33.098Z,28.97
2023-02-09T20:10:00.232Z,26.83
2023-02-09T20:12:27.514Z,25.07
2023-02-09T20:14:54.436Z,23.93
2023-02-09T20:17:21.787Z,26.90
2023-02-09T20:19:48.446Z,23.73
2023-02-09T20:22:15.480Z,21.30
2023-02-09T20:24:43.636Z,21.83
2023-02-09T20:27:11.420Z,22.87
2023-02-09T20:29:38.587Z,21.60
2023-02-09T20:32:05.907Z,21.77
2023-02-09T20:34:32.774Z,23.37
2023-02-09T20:36:59.981Z,21.87
2023-02-09T20:39:26.741Z,21.23
2023-02-09T20:42:16.538Z,19.57
2023-02-09T20:45:02.060Z,21.40
2023-02-09T20:47:31.816Z,21.03
2023-02-09T20:49:59.428Z,22.17
2023-02-09T20:52:30.064Z,22.30
2023-02-09T20:54:57.360Z,18.60
2023-02-09T20:57:28.811Z,24.87
2023-02-09T20:59:57.496Z,18.87
2023-02-09T21:02:25.107Z,19.67
2023-02-09T21:04:56.294Z,18.73
2023-02-09T21:07:24.511Z,20.10
2023-02-09T21:10:12.221Z,17.30
2023-02-09T21:12:58.104Z,19.10
2023-02-09T21:15:24.916Z,22.10
2023-02-09T21:17:51.725Z,18.73
2023-02-09T21:20:18.480Z,19.97
2023-02-09T21:22:44.970Z,21.63
2023-02-09T21:25:13.245Z,20.63
2023-02-09T21:27:39.569Z,21.47
2023-02-09T21:30:06.629Z,19.60
2023-02-09T21:32:37.832Z,20.23
2023-02-09T21:35:09.499Z,21.23
2023-02-09T21:37:42.269Z,20.63
2023-02-09T21:40:10.692Z,22.03
2023-02-09T21:42:38.452Z,21.50
2023-02-09T21:45:07.713Z,21.87
2023-02-09T21:47:37.056Z,20.57
2023-02-09T21:50:06.805Z,20.50
2023-02-09T21:52:34.117Z,22.03
2023-02-09T21:55:01.735Z,20.73
2023-02-09T21:57:28.885Z,19.13
2023-02-09T21:59:56.094Z,20.77
2023-02-09T22:02:22.632Z,23.07
2023-02-09T22:04:49.985Z,22.23
2023-02-09T22:07:16.415Z,20.70
2023-02-09T22:09:43.402Z,19.40
2023-02-09T22:12:10.099Z,19.03
2023-02-09T22:14:36.761Z,23.60
2023-02-09T22:17:03.576Z,20.83
2023-02-09T22:19:30.489Z,21.23
2023-02-09T22:21:57.356Z,20.80
2023-02-09T22:24:24.618Z,24.87
2023-02-09T22:26:51.009Z,17.47
2023-02-09T22:29:17.792Z,20.43
2023-02-09T22:31:45.127Z,22.70
2023-02-09T22:34:12.172Z,18.13
2023-02-09T22:36:39.061Z,19.53
2023-02-09T22:39:06.831Z,20.90
2023-02-09T22:41:33.374Z,19.33
2023-02-09T22:44:05.699Z,22.53
2023-02-09T22:46:35.054Z,23.17
2023-02-09T22:49:05.512Z,23.53
2023-02-09T22:51:32.982Z,26.47
2023-02-09T22:54:00.651Z,21.87
2023-02-09T22:56:28.272Z,20.90
2023-02-09T22:58:56.345Z,22.80
2023-02-09T23:01:22.617Z,23.90
2023-02-09T23:03:49.526Z,24.03
2023-02-09T23:06:20.250Z,21.57
2023-02-09T23:08:47.246Z,26.43
2023-02-09T23:11:16.745Z,25.60
2023-02-09T23:13:43.892Z,23.53
2023-02-09T23:16:21.113Z,24.87
2023-02-09T23:18:59.360Z,22.90
2023-02-09T23:21:28.240Z,28.03
2023-02-09T23:23:55.456Z,24.03
2023-02-09T23:26:22.352Z,22.50
2023-02-09T23:28:55.415Z,25.33
2023-02-09T23:31:23.657Z,26.03
2023-02-09T23:33:50.549Z,21.53
2023-02-09T23:36:20.907Z,22.57
2023-02-09T23:38:52.312Z,19.27
2023-02-09T23:41:19.329Z,22.13
2023-02-09T23:43:46.537Z,21.87
2023-02-09T23:46:16.710Z,21.77
2023-02-09T23:48:47.191Z,22.73
2023-02-09T23:51:17.936Z,21.13
2023-02-09T23:53:46.029Z,20.73
2023-02-09T23:56:13.536Z,22.27
2023-02-09T23:58:43.259Z,20.60
